00:05
Airports
History
Links
Donate
Help keep this website running!
PayPal
Bitcoin
This page is community maintained. The information is intended for PC simulator navigation or reference.
Always use approved charts for navigation.
SJFU
Tabuleiro
Tabuleiro (SJFU)
Bananeiras, Paraíba, Brazil (58220)
(U)
Lat/Lng:6° 41' 39" S / 35° 37' 49" W
-6.694167 / -35.630278
Elevation:1716'ft / 523mMSL
ID / ICAO:SJFU
Runways:1
Longest:04-22
Asphalt 901m / 2,957ft
Nearby Weather22:00 GMT 2017-10-16
Nearby weather at SBKG, PRESIDENTE JOAO SUASSUNA located 43.8 nautical miles from SJFU
Altimeter: 30.03
Visibility: 6.2 statute miles
Wind: 13 knots (from 120°)
Temp: 23°c / 73°f
Humidity: 78.2%

METAR: SBKG 162200Z 12013KT 9999 SCT020 23/19 Q1017

(Powered by phpweather)
Runway 04 / 22
Dimensions:901.2 x 20.1m 2957' x 66'ft
Surface:Asphalt
Runway 04 [A]Runway 22 [B]
Heading:017°TH 197°TH
Lat:
Lng:
6° 41' 52.9"S
35° 37' 53.52"W
6° 41' 25.1"S
35° 37' 44.48"W
User Notes and Comments
6° 41' 39" S / 35° 37' 49" W
Distance To
Airport ID:
Nearby Airports
(C) Rio Tinto 36.9 NM
SNRN E 100°
4 Pedro Simoes Pimenta 37.8 NM
SICB WNW 292°
4 Aeroclube 41.6 NM
SNKB SW 216°
(C) PRESIDENTE JOAO SUASSUNA 43.8 NM
SBKG ( WX ) SSW 204°
(U) Senador Antonio Farias 44.8 NM
SIQA ENE 63°
4 Severino Lopes 53.7 NM
SJBX NNE 29°
(C) Presidente Castro Pinto 56.2 NM
SBJP ( WX ) ESE 123°
VFR Chart
Flight Planning at SkyVector.com